Time;durP1;ratioP1;P1;durP2;ratioP2;P2;SDS_P1;SDS_P2;PMS_P1;PMS_P2;Temp;Humidity;BMP_temperature;BMP_pressure;BME280_temperature;BME280_humidity;BME280_pressure;Samples;Min_cycle;Max_cycle;Signal;HPM_P1;HPM_P2
2022/04/04 00:01:24;;;;;;;1.70;1.10;;;;;;;8.77;100.00;99845.00;7389347;19;20034;-81
2022/04/04 00:03:50;;;;;;;1.98;1.00;;;;;;;8.78;100.00;99834.66;7391315;19;20021;-81
2022/04/04 00:06:16;;;;;;;0.30;0.30;;;;;;;8.80;100.00;99832.97;7393841;19;20014;-81
2022/04/04 00:08:42;;;;;;;1.20;0.93;;;;;;;8.85;100.00;99829.59;7387490;19;20019;-81
2022/04/04 00:11:10;;;;;;;1.38;1.15;;;;;;;8.85;100.00;99818.47;7388637;19;20017;-80
2022/04/04 00:13:36;;;;;;;0.80;0.70;;;;;;;8.91;100.00;99816.63;7393415;19;20035;-82
2022/04/04 00:16:02;;;;;;;1.85;1.52;;;;;;;8.91;100.00;99799.94;7391267;19;20088;-81
2022/04/04 00:18:28;;;;;;;1.45;1.35;;;;;;;8.93;100.00;99805.03;7389457;19;20003;-80
2022/04/04 00:20:55;;;;;;;0.90;0.90;;;;;;;8.92;100.00;99793.16;7389813;19;20050;-80
2022/04/04 00:23:21;;;;;;;1.33;1.15;;;;;;;8.92;100.00;99787.59;7392023;19;20010;-81
2022/04/04 00:25:48;;;;;;;1.00;1.00;;;;;;;8.93;100.00;99780.81;7389887;19;20035;-81
2022/04/04 00:28:14;;;;;;;2.35;1.50;;;;;;;8.95;100.00;99778.34;7388604;19;20014;-81
2022/04/04 00:30:41;;;;;;;2.05;1.17;;;;;;;8.93;100.00;99772.47;7393600;19;20019;-81
2022/04/04 00:33:09;;;;;;;2.55;1.10;;;;;;;8.93;100.00;99763.38;7392116;19;20014;-81
2022/04/04 00:35:35;;;;;;;1.48;1.00;;;;;;;8.93;100.00;99753.03;7387400;19;20022;-80
2022/04/04 00:38:03;;;;;;;5.15;1.15;;;;;;;8.92;100.00;99750.75;7388442;19;20022;-82
2022/04/04 00:40:30;;;;;;;2.58;1.23;;;;;;;8.93;100.00;99741.94;7389106;19;20051;-81
2022/04/04 00:42:57;;;;;;;0.55;0.55;;;;;;;8.92;100.00;99734.81;7392368;19;20018;-81
2022/04/04 00:45:23;;;;;;;1.20;1.02;;;;;;;8.93;100.00;99730.81;7384961;19;20019;-82
2022/04/04 00:47:49;;;;;;;0.40;0.40;;;;;;;8.93;100.00;99714.16;7387812;19;20026;-81
2022/04/04 00:50:15;;;;;;;1.40;1.30;;;;;;;8.93;100.00;99710.59;7387556;19;20014;-82
2022/04/04 00:52:42;;;;;;;0.98;0.98;;;;;;;8.94;100.00;99712.91;7387289;19;20018;-81
2022/04/04 00:55:09;;;;;;;2.03;1.50;;;;;;;8.94;100.00;99704.56;7386601;19;20373;-80
2022/04/04 00:57:39;;;;;;;0.52;0.50;;;;;;;8.95;100.00;99695.03;7385242;19;20370;-80
2022/04/04 01:00:11;;;;;;;4.78;1.20;;;;;;;8.96;100.00;99685.47;7387671;19;20043;-80
2022/04/04 01:02:39;;;;;;;9.15;0.88;;;;;;;8.93;100.00;99680.84;7389395;19;20025;-81
2022/04/04 01:05:07;;;;;;;0.93;0.93;;;;;;;8.95;100.00;99672.81;7387986;19;20049;-81
2022/04/04 01:07:36;;;;;;;9.55;1.17;;;;;;;8.87;100.00;99671.59;7386780;19;20567;-80
2022/04/04 01:10:03;;;;;;;1.20;1.10;;;;;;;8.87;100.00;99662.50;7387631;19;20047;-79
2022/04/04 01:12:29;;;;;;;2.28;0.57;;;;;;;8.90;100.00;99664.34;7390793;19;20019;-80
2022/04/04 01:14:55;;;;;;;0.82;0.82;;;;;;;8.84;100.00;99658.66;7387350;19;20022;-80
2022/04/04 01:17:22;;;;;;;5.78;1.25;;;;;;;8.84;100.00;99644.75;7390358;19;20041;-80
2022/04/04 01:19:48;;;;;;;0.65;0.65;;;;;;;8.86;100.00;99644.28;7386810;19;20018;-81
2022/04/04 01:22:15;;;;;;;0.60;0.60;;;;;;;8.91;100.00;99633.31;7386579;19;20378;-80
2022/04/04 01:24:42;;;;;;;0.73;0.73;;;;;;;8.89;100.00;99641.34;7386395;19;20018;-80
2022/04/04 01:27:11;;;;;;;4.63;0.98;;;;;;;8.95;100.00;99633.16;7387286;19;20026;-81
2022/04/04 01:29:39;;;;;;;2.65;1.13;;;;;;;8.95;100.00;99620.03;7384964;19;20501;-80
2022/04/04 01:32:06;;;;;;;0.68;0.68;;;;;;;9.01;100.00;99626.47;7388142;19;20042;-80
2022/04/04 01:34:33;;;;;;;8.15;1.23;;;;;;;9.01;100.00;99623.72;7389834;19;20035;-80
2022/04/04 01:37:00;;;;;;;1.25;1.15;;;;;;;9.00;100.00;99613.84;7385930;19;20015;-79
2022/04/04 01:39:26;;;;;;;0.95;0.95;;;;;;;9.04;100.00;99603.34;7386361;19;20019;-80
2022/04/04 01:41:52;;;;;;;2.53;0.93;;;;;;;9.06;100.00;99606.41;7385392;19;20019;-80
2022/04/04 01:44:18;;;;;;;3.50;1.23;;;;;;;9.08;100.00;99595.59;7386907;19;20035;-80
2022/04/04 01:46:45;;;;;;;0.82;0.82;;;;;;;9.09;100.00;99580.47;7386223;19;20010;-80
2022/04/04 01:49:11;;;;;;;3.72;1.00;;;;;;;9.12;100.00;99587.06;7384162;19;20480;-80
2022/04/04 01:51:38;;;;;;;6.72;1.05;;;;;;;9.13;100.00;99583.84;7385642;19;20082;-81
2022/04/04 01:54:05;;;;;;;2.28;1.33;;;;;;;9.09;100.00;99569.38;7386666;19;20102;-81
2022/04/04 01:56:32;;;;;;;1.98;1.00;;;;;;;9.18;100.00;99563.72;7388649;19;20038;-81
2022/04/04 01:58:59;;;;;;;0.93;0.93;;;;;;;9.21;100.00;99564.03;7390556;19;20458;-81
2022/04/04 02:01:27;;;;;;;1.08;0.90;;;;;;;9.22;100.00;99557.22;7391586;19;20019;-80
2022/04/04 02:03:56;;;;;;;0.80;0.80;;;;;;;9.22;100.00;99557.22;7396009;19;20706;-81
2022/04/04 02:06:23;;;;;;;5.55;1.70;;;;;;;9.26;100.00;99549.47;7395647;19;20044;-80
2022/04/04 02:08:50;;;;;;;0.80;0.80;;;;;;;9.31;100.00;99548.84;7391376;19;20716;-80
2022/04/04 02:11:18;;;;;;;0.80;0.80;;;;;;;9.29;100.00;99546.50;7392517;19;20034;-80
2022/04/04 02:13:45;;;;;;;1.10;0.95;;;;;;;9.35;100.00;99544.66;7396962;19;20044;-81
2022/04/04 02:16:11;;;;;;;1.05;0.95;;;;;;;9.34;100.00;99531.19;7392263;19;20606;-81
2022/04/04 02:18:38;;;;;;;1.30;0.40;;;;;;;9.37;100.00;99535.81;7390538;19;20603;-80
2022/04/04 02:21:06;;;;;;;0.57;0.52;;;;;;;9.45;100.00;99528.66;7389797;19;20802;-81
2022/04/04 02:23:32;;;;;;;0.77;0.77;;;;;;;9.47;100.00;99531.72;7392691;19;20026;-80
2022/04/04 02:25:59;;;;;;;0.47;0.47;;;;;;;9.43;100.00;99512.44;7391075;19;20096;-79
2022/04/04 02:28:27;;;;;;;1.08;0.75;;;;;;;9.43;100.00;99509.69;7388710;19;20023;-81
2022/04/04 02:30:55;;;;;;;0.63;0.60;;;;;;;9.52;100.00;99514.38;7391271;19;20105;-80
2022/04/04 02:33:22;;;;;;;0.85;0.85;;;;;;;9.57;100.00;99508.16;7393784;19;20021;-80
2022/04/04 02:35:51;;;;;;;0.68;0.68;;;;;;;9.57;100.00;99495.03;7395195;19;20022;-81
2022/04/04 02:38:19;;;;;;;0.47;0.47;;;;;;;9.60;100.00;99501.63;7389455;19;20014;-81
2022/04/04 02:40:45;;;;;;;1.20;0.70;;;;;;;9.62;100.00;99502.72;7390189;19;20017;-81
2022/04/04 02:43:11;;;;;;;1.05;0.98;;;;;;;9.63;100.00;99489.56;7396599;19;20667;-80
2022/04/04 02:45:38;;;;;;;2.45;1.08;;;;;;;9.65;100.00;99489.88;7391329;19;20025;-80
2022/04/04 02:48:05;;;;;;;0.57;0.57;;;;;;;9.67;100.00;99479.03;7390941;19;20022;-81
2022/04/04 02:50:31;;;;;;;5.43;0.60;;;;;;;9.74;100.00;99467.53;7391977;19;20044;-81
2022/04/04 02:52:57;;;;;;;0.60;0.38;;;;;;;9.72;100.00;99472.81;7394273;19;20018;-81
2022/04/04 02:58:09;;;;;;;0.30;0.30;;;;;;;9.78;100.00;99459.75;7388968;19;20010;-80
2022/04/04 03:00:35;;;;;;;0.55;0.55;;;;;;;9.78;100.00;99454.22;7390038;19;20029;-80
2022/04/04 03:03:01;;;;;;;1.30;0.65;;;;;;;9.80;100.00;99443.38;7396617;19;20014;-80
2022/04/04 03:05:28;;;;;;;0.70;0.70;;;;;;;9.83;100.00;99440.38;7393266;19;20019;-81
2022/04/04 03:07:54;;;;;;;0.95;0.95;;;;;;;9.84;100.00;99427.25;7391007;19;20054;-81
2022/04/04 03:10:20;;;;;;;1.20;1.10;;;;;;;9.84;100.00;99432.81;7392260;19;20021;-81
2022/04/04 03:12:49;;;;;;;1.17;1.05;;;;;;;9.82;100.00;99435.31;7393869;19;20019;-81
2022/04/04 03:15:21;;;;;;;1.98;0.47;;;;;;;9.87;100.00;99429.09;7391482;19;20019;-81
2022/04/04 03:17:51;;;;;;;5.78;0.80;;;;;;;9.85;100.00;99426.03;7388043;19;20019;-82
2022/04/04 03:20:19;;;;;;;0.67;0.57;;;;;;;9.88;100.00;99414.69;7389488;19;20021;-82
2022/04/04 03:22:48;;;;;;;0.40;0.40;;;;;;;9.90;100.00;99408.63;7392186;19;20046;-81
2022/04/04 03:25:15;;;;;;;0.90;0.68;;;;;;;9.95;100.00;99405.19;7391352;19;20046;-81
2022/04/04 03:27:43;;;;;;;0.50;0.45;;;;;;;9.95;100.00;99410.75;7388426;19;20039;-81
2022/04/04 03:30:15;;;;;;;0.88;0.55;;;;;;;9.98;100.00;99395.88;7391203;19;20828;-82
2022/04/04 03:32:41;;;;;;;7.32;0.85;;;;;;;10.03;100.00;99397.22;7392826;19;20015;-81
2022/04/04 03:35:08;;;;;;;0.50;0.50;;;;;;;10.03;100.00;99392.41;7390572;19;20115;-83
2022/04/04 03:37:36;;;;;;;0.65;0.65;;;;;;;10.03;100.00;99388.88;7390584;19;20026;-83
2022/04/04 03:40:04;;;;;;;0.40;0.40;;;;;;;10.04;100.00;99388.38;7389532;19;20014;-83
2022/04/04 03:42:31;;;;;;;11.80;0.85;;;;;;;10.02;100.00;99388.09;7393539;19;20018;-82
2022/04/04 03:44:57;;;;;;;6.13;1.52;;;;;;;10.10;100.00;99391.22;7391421;19;20115;-83
2022/04/04 03:47:24;;;;;;;1.45;0.52;;;;;;;10.14;100.00;99378.69;7388101;19;20706;-81
2022/04/04 03:49:50;;;;;;;0.50;0.50;;;;;;;10.17;100.00;99363.81;7388399;19;20029;-82
2022/04/04 03:52:16;;;;;;;0.73;0.73;;;;;;;10.14;100.00;99364.00;7391972;19;20018;-83
2022/04/04 03:54:42;;;;;;;1.00;0.63;;;;;;;10.15;100.00;99368.34;7396143;19;20384;-84
2022/04/04 03:57:09;;;;;;;0.45;0.45;;;;;;;10.14;100.00;99364.00;7389883;19;20041;-83
2022/04/04 03:59:35;;;;;;;0.73;0.52;;;;;;;10.20;100.00;99368.41;7390132;19;20373;-82
2022/04/04 04:02:01;;;;;;;7.07;0.75;;;;;;;10.21;100.00;99358.81;7389906;19;20078;-83
2022/04/04 04:04:27;;;;;;;1.25;0.63;;;;;;;10.18;100.00;99353.47;7389836;19;20378;-83
2022/04/04 04:06:53;;;;;;;6.00;1.13;;;;;;;10.19;100.00;99347.41;7388512;19;20019;-83
2022/04/04 04:09:19;;;;;;;0.50;0.43;;;;;;;10.24;100.00;99352.28;7390587;19;20116;-82
2022/04/04 04:11:46;;;;;;;0.95;0.70;;;;;;;10.26;100.00;99344.22;7392655;19;20006;-83
2022/04/04 04:14:12;;;;;;;0.43;0.43;;;;;;;10.27;100.00;99339.41;7387509;19;20025;-83
2022/04/04 04:16:38;;;;;;;2.63;0.65;;;;;;;10.24;100.00;99335.59;7392352;19;20398;-83
2022/04/04 04:20:19;;;;;;;0.43;0.43;;;;;;;10.21;100.00;99339.34;7384799;19;20021;-82
2022/04/04 04:21:50;;;;;;;0.40;0.40;;;;;;;10.26;100.00;99333.09;7386339;19;20022;-82
2022/04/04 04:24:16;;;;;;;0.80;0.40;;;;;;;10.31;100.00;99324.03;7392835;19;20112;-82
2022/04/04 04:26:43;;;;;;;0.20;0.20;;;;;;;10.30;100.00;99324.53;7388490;19;20051;-82
2022/04/04 04:29:09;;;;;;;0.57;0.43;;;;;;;10.33;100.00;99326.34;7388035;19;20018;-81
2022/04/04 04:31:35;;;;;;;1.70;0.73;;;;;;;10.35;100.00;99319.00;7390032;19;20019;-80
2022/04/04 04:34:03;;;;;;;1.48;0.82;;;;;;;10.44;100.00;99327.22;7388451;19;20025;-80
2022/04/04 04:36:29;;;;;;;0.60;0.60;;;;;;;10.48;100.00;99316.66;7387641;19;20489;-81
2022/04/04 04:38:55;;;;;;;0.47;0.47;;;;;;;10.55;100.00;99315.47;7386927;19;20026;-81
2022/04/04 04:41:22;;;;;;;0.93;0.70;;;;;;;10.51;100.00;99315.69;7385174;19;20029;-81
2022/04/04 04:43:48;;;;;;;0.50;0.50;;;;;;;10.54;100.00;99309.16;7391573;19;20018;-81
2022/04/04 04:46:14;;;;;;;7.70;1.17;;;;;;;10.55;100.00;99305.09;7386095;19;20026;-81
2022/04/04 04:48:40;;;;;;;2.25;0.80;;;;;;;10.49;100.00;99307.06;7382954;19;20086;-80
2022/04/04 04:51:07;;;;;;;0.63;0.60;;;;;;;10.57;100.00;99297.00;7386652;19;20026;-80
2022/04/04 04:53:34;;;;;;;0.57;0.57;;;;;;;10.60;100.00;99296.03;7390317;19;20022;-81
2022/04/04 04:56:00;;;;;;;0.70;0.70;;;;;;;10.65;100.00;99298.09;7393114;19;20021;-81
2022/04/04 04:58:26;;;;;;;0.60;0.60;;;;;;;10.70;100.00;99293.13;7390763;19;20010;-81
2022/04/04 05:00:53;;;;;;;0.70;0.70;;;;;;;10.66;100.00;99285.72;7387813;19;20049;-81
2022/04/04 05:03:25;;;;;;;1.05;0.93;;;;;;;10.70;100.00;99285.50;7386532;19;20022;-81
2022/04/04 05:05:51;;;;;;;0.60;0.60;;;;;;;10.73;100.00;99292.13;7388222;19;20047;-81
2022/04/04 05:08:18;;;;;;;1.00;0.90;;;;;;;10.73;100.00;99289.34;7385518;19;20043;-81
2022/04/04 05:10:44;;;;;;;3.50;0.88;;;;;;;10.76;100.00;99291.91;7387199;19;20025;-81
2022/04/04 05:13:10;;;;;;;0.80;0.60;;;;;;;10.77;100.00;99287.09;7391667;19;20048;-81
2022/04/04 05:15:37;;;;;;;1.38;0.80;;;;;;;10.82;100.00;99280.81;7388553;19;20021;-81
2022/04/04 05:18:03;;;;;;;1.17;1.17;;;;;;;10.82;100.00;99275.25;7386728;19;20043;-81
2022/04/04 05:20:29;;;;;;;0.63;0.60;;;;;;;10.84;100.00;99275.53;7386632;19;20039;-81
2022/04/04 05:22:57;;;;;;;3.65;1.20;;;;;;;10.86;100.00;99276.56;7389724;19;20485;-81
2022/04/04 05:25:24;;;;;;;1.92;1.00;;;;;;;10.86;100.00;99273.00;7385711;19;20018;-80
2022/04/04 05:27:55;;;;;;;1.33;0.90;;;;;;;10.87;100.00;99268.97;7388924;19;20014;-81
2022/04/04 05:30:21;;;;;;;1.98;1.05;;;;;;;10.88;100.00;99262.13;7385401;19;20014;-81
2022/04/04 05:32:49;;;;;;;1.50;1.08;;;;;;;10.88;100.00;99256.56;7388634;19;20019;-80
2022/04/04 05:35:19;;;;;;;1.52;1.42;;;;;;;10.94;100.00;99262.94;7389480;19;20014;-80
2022/04/04 05:37:46;;;;;;;1.42;1.38;;;;;;;10.87;100.00;99247.44;7386875;19;20021;-80
2022/04/04 05:40:14;;;;;;;6.18;1.10;;;;;;;10.88;100.00;99262.91;7386446;19;20052;-80
2022/04/04 05:42:43;;;;;;;0.77;0.77;;;;;;;10.90;100.00;99252.03;7388248;19;20022;-80
2022/04/04 05:45:09;;;;;;;1.27;0.60;;;;;;;10.89;100.00;99260.91;7383056;19;20259;-80
2022/04/04 05:47:36;;;;;;;2.55;1.23;;;;;;;10.89;100.00;99256.09;7382691;19;20022;-80
2022/04/04 05:50:04;;;;;;;1.40;1.35;;;;;;;10.90;100.00;99254.06;7386930;19;20026;-80
2022/04/04 05:52:30;;;;;;;0.50;0.50;;;;;;;10.94;100.00;99251.81;7389360;19;20346;-80
2022/04/04 05:55:01;;;;;;;1.08;0.80;;;;;;;10.95;100.00;99247.78;7386115;19;20465;-80
2022/04/04 05:57:30;;;;;;;0.47;0.47;;;;;;;10.96;100.00;99249.31;7387740;19;20022;-81
2022/04/04 05:59:56;;;;;;;1.85;0.90;;;;;;;11.03;100.00;99248.84;7387824;19;20018;-82
2022/04/04 06:02:24;;;;;;;1.02;1.02;;;;;;;11.02;100.00;99241.78;7387495;19;20011;-82
2022/04/04 06:04:50;;;;;;;1.08;1.08;;;;;;;11.04;100.00;99242.03;7386864;19;20011;-83
2022/04/04 06:07:17;;;;;;;1.02;0.75;;;;;;;11.03;100.00;99246.84;7384232;19;20026;-81
2022/04/04 06:09:44;;;;;;;1.48;0.60;;;;;;;11.04;100.00;99244.81;7386346;19;20022;-82
2022/04/04 06:12:11;;;;;;;0.50;0.50;;;;;;;11.09;100.00;99246.88;7388429;19;20039;-82
2022/04/04 06:14:37;;;;;;;1.17;1.13;;;;;;;11.12;100.00;99252.25;7383608;19;20578;-82
2022/04/04 06:17:05;;;;;;;3.47;0.95;;;;;;;11.16;100.00;99250.00;7387167;19;20032;-82
2022/04/04 06:19:35;;;;;;;1.50;0.88;;;;;;;11.21;100.00;99249.28;7387054;19;20427;-82
2022/04/04 06:22:03;;;;;;;0.85;0.85;;;;;;;11.25;100.00;99243.47;7385952;19;20019;-82
2022/04/04 06:24:31;;;;;;;0.73;0.68;;;;;;;11.24;100.00;99233.59;7387413;19;20059;-82
2022/04/04 06:26:57;;;;;;;8.85;0.60;;;;;;;11.30;100.00;99234.41;7386770;19;20508;-82
2022/04/04 06:29:24;;;;;;;0.30;0.20;;;;;;;11.33;100.00;99231.38;7386975;19;20594;-82
2022/04/04 06:31:51;;;;;;;0.85;0.75;;;;;;;11.36;100.00;99224.81;7387237;19;20016;-82
2022/04/04 06:34:18;;;;;;;0.77;0.77;;;;;;;11.40;100.00;99228.13;7386147;19;20078;-82
2022/04/04 06:36:44;;;;;;;0.55;0.40;;;;;;;11.41;100.00;99217.75;7388205;19;20374;-82
2022/04/04 06:39:11;;;;;;;2.75;0.40;;;;;;;11.38;100.00;99230.66;7382613;19;20036;-82
2022/04/04 06:41:37;;;;;;;0.60;0.60;;;;;;;11.44;100.00;99216.75;7384240;19;20035;-82
2022/04/04 06:44:04;;;;;;;0.73;0.73;;;;;;;11.50;100.00;99223.13;7389997;19;20015;-81
2022/04/04 06:46:31;;;;;;;1.00;0.85;;;;;;;11.51;100.00;99221.88;7392857;19;20010;-81
2022/04/04 06:48:58;;;;;;;0.40;0.40;;;;;;;11.56;100.00;99226.72;7392362;19;20014;-81
2022/04/04 06:51:24;;;;;;;1.15;0.40;;;;;;;11.65;100.00;99220.94;7393288;19;20018;-81
2022/04/04 06:53:50;;;;;;;5.72;0.60;;;;;;;11.72;100.00;99220.50;7393200;19;20023;-81
2022/04/04 06:56:16;;;;;;;1.08;0.98;;;;;;;11.73;100.00;99221.28;7391977;19;20477;-82
2022/04/04 06:58:42;;;;;;;1.15;0.47;;;;;;;11.77;100.00;99217.00;7388075;19;20011;-81
2022/04/04 07:01:08;;;;;;;2.92;0.98;;;;;;;11.80;100.00;99232.72;7390547;19;20817;-82
2022/04/04 07:03:35;;;;;;;1.95;0.60;;;;;;;11.85;100.00;99218.03;7390563;19;20588;-84
2022/04/04 07:06:01;;;;;;;1.58;0.63;;;;;;;11.82;100.00;99219.06;7390964;19;20010;-82
2022/04/04 07:08:28;;;;;;;2.60;1.25;;;;;;;11.94;100.00;99219.84;7390123;19;20018;-82
2022/04/04 07:10:54;;;;;;;1.70;0.82;;;;;;;12.00;100.00;99221.41;7391537;19;20018;-82
2022/04/04 07:13:21;;;;;;;1.42;0.70;;;;;;;12.02;100.00;99227.25;7389422;19;20559;-82
2022/04/04 07:15:47;;;;;;;1.67;1.15;;;;;;;12.05;100.00;99214.31;7389766;19;20018;-81
2022/04/04 07:18:13;;;;;;;4.03;1.10;;;;;;;12.08;100.00;99208.50;7388324;19;20023;-81
2022/04/04 07:20:39;;;;;;;1.38;1.00;;;;;;;12.10;100.00;99208.78;7390660;19;20030;-81
2022/04/04 07:23:05;;;;;;;6.53;1.73;;;;;;;12.09;100.00;99209.25;7395196;19;20045;-81
2022/04/04 07:25:32;;;;;;;7.13;1.92;;;;;;;12.10;100.00;99200.41;7389890;19;20010;-82
2022/04/04 07:27:58;;;;;;;1.55;1.45;;;;;;;12.09;100.00;99210.03;7394065;19;20015;-82
2022/04/04 07:30:24;;;;;;;3.28;1.63;;;;;;;12.08;100.00;99208.50;7390733;19;20022;-82
2022/04/04 07:32:51;;;;;;;2.58;1.10;;;;;;;12.07;100.00;99201.41;7391729;19;20014;-83
2022/04/04 07:35:19;;;;;;;6.30;1.65;;;;;;;12.09;100.00;99204.44;7390464;19;20052;-83
2022/04/04 07:37:47;;;;;;;7.80;1.30;;;;;;;12.18;100.00;99212.59;7391050;19;20136;-82
2022/04/04 07:40:16;;;;;;;1.15;0.95;;;;;;;12.24;100.00;99203.47;7390833;19;20043;-83
2022/04/04 07:42:43;;;;;;;2.92;0.88;;;;;;;12.26;100.00;99217.72;7393945;19;20015;-82
2022/04/04 07:45:13;;;;;;;2.08;1.45;;;;;;;12.30;100.00;99212.66;7388776;19;20039;-82
2022/04/04 07:47:40;;;;;;;8.07;1.67;;;;;;;12.35;100.00;99209.88;7389012;19;20032;-83
2022/04/04 07:50:08;;;;;;;2.28;1.02;;;;;;;12.37;100.00;99209.34;7391461;19;20019;-83
2022/04/04 07:52:35;;;;;;;3.22;1.60;;;;;;;12.34;100.00;99205.56;7393409;19;20010;-83
2022/04/04 07:55:01;;;;;;;1.42;0.98;;;;;;;12.34;100.00;99204.78;7391955;19;20017;-86
2022/04/04 07:57:27;;;;;;;3.08;1.40;;;;;;;12.35;100.00;99209.09;7393975;19;20038;-83
2022/04/04 07:59:53;;;;;;;2.80;1.17;;;;;;;12.30;100.00;99216.19;7388592;19;20571;-82
2022/04/04 08:02:20;;;;;;;1.05;0.82;;;;;;;12.32;100.00;99218.50;7390067;19;20018;-82
2022/04/04 08:04:46;;;;;;;1.23;0.60;;;;;;;12.30;100.00;99213.41;7389840;19;20022;-82
2022/04/04 08:07:13;;;;;;;1.00;0.95;;;;;;;12.33;100.00;99217.22;7388028;19;20018;-81
2022/04/04 08:09:39;;;;;;;0.77;0.77;;;;;;;12.33;100.00;99217.22;7388150;19;20036;-81
2022/04/04 08:12:06;;;;;;;0.65;0.65;;;;;;;12.37;100.00;99212.16;7389388;19;20022;-81
2022/04/04 08:14:32;;;;;;;4.72;1.85;;;;;;;12.39;100.00;99206.84;7387748;19;20022;-81
2022/04/04 08:17:00;;;;;;;2.38;1.58;;;;;;;12.36;100.00;99219.00;7392546;19;20523;-81
2022/04/04 08:19:28;;;;;;;2.08;1.17;;;;;;;12.37;100.00;99212.16;7389180;19;20485;-82
2022/04/04 08:21:54;;;;;;;1.50;1.23;;;;;;;12.33;100.00;99214.41;7389329;19;20014;-82
2022/04/04 08:24:22;;;;;;;1.73;1.63;;;;;;;12.39;100.00;99204.06;7388254;19;20014;-83
2022/04/04 08:26:49;;;;;;;0.85;0.82;;;;;;;12.38;100.00;99202.50;7389827;19;20047;-81
2022/04/04 08:29:15;;;;;;;4.43;1.10;;;;;;;12.45;100.00;99202.78;7387470;19;20473;-83
2022/04/04 08:31:42;;;;;;;0.93;0.52;;;;;;;12.45;100.00;99207.63;7389781;19;20022;-83
2022/04/04 08:34:08;;;;;;;1.05;0.90;;;;;;;12.44;100.00;99200.50;7384203;19;20027;-81
2022/04/04 08:36:35;;;;;;;0.88;0.88;;;;;;;12.49;100.00;99202.53;7384706;19;20011;-84
2022/04/04 08:39:02;;;;;;;1.30;0.40;;;;;;;12.49;100.00;99203.31;7384100;19;20044;-83
2022/04/04 08:41:32;;;;;;;0.90;0.90;;;;;;;12.56;100.00;99207.66;7382366;19;20022;-83
2022/04/04 08:44:01;;;;;;;0.90;0.73;;;;;;;12.56;100.00;99190.88;7383243;19;20019;-83
2022/04/04 08:46:29;;;;;;;0.57;0.57;;;;;;;12.58;100.00;99200.25;7385191;19;20345;-83
2022/04/04 08:48:58;;;;;;;2.00;0.82;;;;;;;12.58;100.00;99200.25;7386160;19;20055;-84
2022/04/04 08:51:27;;;;;;;3.33;0.93;;;;;;;12.61;100.00;99206.88;7390647;19;20493;-83
2022/04/04 08:53:54;;;;;;;1.98;0.70;;;;;;;12.60;100.00;99205.38;7389368;19;20473;-84
2022/04/04 08:56:25;;;;;;;4.70;1.52;;;;;;;12.52;100.00;99207.88;7388228;19;20047;-87
2022/04/04 08:58:52;;;;;;;0.85;0.75;;;;;;;12.41;100.00;99207.09;7385901;19;20086;-84
2022/04/04 09:01:27;;;;;;;0.93;0.63;;;;;;;12.42;100.00;99203.81;7386367;19;20014;-84
2022/04/04 09:04:13;;;;;;;4.40;1.00;;;;;;;12.45;100.00;99202.03;7386602;19;20026;-83
2022/04/04 09:06:50;;;;;;;3.78;2.05;;;;;;;12.48;100.00;99198.22;7386368;19;20018;-84
2022/04/04 09:09:26;;;;;;;3.97;2.40;;;;;;;12.46;100.00;99198.72;7387400;19;20014;-84
2022/04/04 09:12:19;;;;;;;4.18;1.40;;;;;;;12.67;100.00;99207.66;7388945;19;20458;-87
2022/04/04 09:14:54;;;;;;;5.03;0.98;;;;;;;12.80;100.00;99196.75;7387879;19;20014;-83
2022/04/04 09:17:32;;;;;;;7.90;1.83;;;;;;;12.77;100.00;99201.34;7390142;19;20018;-83
2022/04/04 09:20:03;;;;;;;1.70;1.38;;;;;;;12.81;100.00;99195.47;7386656;19;20015;-84
2022/04/04 09:22:30;;;;;;;3.25;1.40;;;;;;;12.82;100.00;99205.41;7389975;19;20018;-84
2022/04/04 09:24:59;;;;;;;3.08;1.52;;;;;;;12.81;100.00;99201.06;7387242;19;20011;-84
2022/04/04 09:27:36;;;;;;;2.17;1.33;;;;;;;12.78;100.00;99200.03;7388652;19;20493;-83
2022/04/04 09:30:07;;;;;;;2.53;1.65;;;;;;;12.78;100.00;99202.06;7387635;19;20015;-83
2022/04/04 09:32:45;;;;;;;4.47;2.10;;;;;;;12.67;100.00;99202.06;7389522;19;20018;-83
2022/04/04 09:35:18;;;;;;;1.95;1.60;;;;;;;12.61;100.00;99198.50;7383193;19;20018;-83
2022/04/04 09:37:50;;;;;;;2.75;1.52;;;;;;;12.70;100.00;99206.66;7384846;19;20022;-84
2022/04/04 09:40:23;;;;;;;2.58;1.48;;;;;;;12.85;100.00;99201.59;7385477;19;20021;-84
2022/04/04 09:42:50;;;;;;;1.83;1.38;;;;;;;12.87;100.00;99202.59;7391170;19;20026;-84
2022/04/04 09:45:17;;;;;;;5.05;2.08;;;;;;;12.86;100.00;99189.16;7387208;19;20010;-85
2022/04/04 09:48:03;;;;;;;5.70;2.50;;;;;;;12.89;100.00;99213.25;7384819;19;20022;-82
2022/04/04 09:50:50;;;;;;;4.88;1.85;;;;;;;12.93;100.00;99191.41;7385919;19;20023;-82
2022/04/04 09:53:22;;;;;;;3.22;1.63;;;;;;;12.95;100.00;99197.25;7388720;19;20011;-82
2022/04/04 09:55:52;;;;;;;3.28;2.05;;;;;;;12.95;100.00;99197.25;7385069;19;20022;-81
2022/04/04 09:58:20;;;;;;;4.78;1.90;;;;;;;12.99;100.00;99202.63;7387800;19;20618;-83
2022/04/04 10:00:49;;;;;;;2.55;1.40;;;;;;;12.98;100.00;99201.06;7383842;19;20469;-82
2022/04/04 10:03:19;;;;;;;2.30;1.35;;;;;;;13.00;100.00;99202.09;7390946;19;20039;-81
2022/04/04 10:06:06;;;;;;;1.67;1.38;;;;;;;13.07;100.00;99196.03;7385726;19;20018;-82
2022/04/04 10:08:35;;;;;;;1.73;1.08;;;;;;;13.11;100.00;99201.34;7381346;19;20050;-82
2022/04/04 10:11:03;;;;;;;1.52;1.10;;;;;;;13.12;100.00;99209.25;7385160;19;20015;-82
2022/04/04 10:13:31;;;;;;;1.48;1.25;;;;;;;13.10;100.00;99194.25;7387263;19;20469;-82
2022/04/04 10:15:57;;;;;;;1.45;0.93;;;;;;;13.13;100.00;99207.19;7386160;19;20018;-83
2022/04/04 10:18:24;;;;;;;2.78;1.88;;;;;;;13.15;100.00;99207.44;7388152;19;20014;-82
2022/04/04 10:20:55;;;;;;;3.00;2.22;;;;;;;13.22;100.00;99190.94;7391137;19;20469;-82
2022/04/04 10:23:23;;;;;;;3.13;1.05;;;;;;;13.21;100.00;99200.59;7391911;19;20015;-82
2022/04/04 10:25:52;;;;;;;1.23;0.95;;;;;;;13.23;100.00;99200.84;7390341;19;20018;-82
2022/04/04 10:28:33;;;;;;;2.88;1.35;;;;;;;13.21;100.00;99208.97;7395075;19;20011;-81
2022/04/04 10:31:12;;;;;;;2.40;1.75;;;;;;;13.23;100.00;99209.22;7392178;19;20019;-82
2022/04/04 10:33:39;;;;;;;9.27;1.38;;;;;;;13.30;100.00;99194.75;7392347;19;20027;-82
2022/04/04 10:36:07;;;;;;;2.95;1.60;;;;;;;13.39;100.00;99200.06;7391523;19;20018;-82
2022/04/04 10:38:35;;;;;;;3.85;2.15;;;;;;;13.43;100.00;99206.16;7391193;19;20127;-82
2022/04/04 10:41:08;;;;;;;4.13;1.55;;;;;;;13.44;100.00;99207.69;7390074;19;20090;-82
2022/04/04 10:43:39;;;;;;;3.92;1.50;;;;;;;13.45;100.00;99212.00;7389849;19;20047;-81
2022/04/04 10:46:11;;;;;;;5.57;1.35;;;;;;;13.46;100.00;99205.16;7392401;19;20022;-82
2022/04/04 10:48:39;;;;;;;1.88;1.75;;;;;;;13.48;100.00;99197.00;7388834;19;20018;-82
2022/04/04 10:51:17;;;;;;;5.47;2.10;;;;;;;13.45;100.00;99189.63;7392560;19;20490;-82
2022/04/04 10:53:46;;;;;;;2.30;1.50;;;;;;;13.42;100.00;99203.88;7392517;19;20026;-83
2022/04/04 10:56:19;;;;;;;1.67;1.20;;;;;;;13.46;100.00;99198.78;7392247;19;20014;-82
2022/04/04 10:58:46;;;;;;;12.27;3.95;;;;;;;13.46;100.00;99199.56;7389237;19;20367;-82
2022/04/04 11:01:19;;;;;;;11.13;3.75;;;;;;;13.51;100.00;99201.56;7389233;19;20029;-82
2022/04/04 11:03:51;;;;;;;16.63;3.80;;;;;;;13.49;100.00;99192.94;7391271;19;20769;-82
2022/04/04 11:09:18;;;;;;;30.58;6.30;;;;;;;13.54;100.00;99194.97;7388462;19;20018;-82
2022/04/04 11:12:14;;;;;;;6.60;3.58;;;;;;;13.59;100.00;99197.00;7393485;19;20026;-82
2022/04/04 11:14:42;;;;;;;5.50;2.70;;;;;;;13.61;100.00;99191.66;7391641;19;20027;-82
2022/04/04 11:17:08;;;;;;;3.08;2.78;;;;;;;13.60;100.00;99201.28;7395102;19;20018;-82
2022/04/04 11:20:01;;;;;;;3.63;2.42;;;;;;;13.62;100.00;99209.94;7391833;19;20078;-82
2022/04/04 11:22:30;;;;;;;6.13;2.13;;;;;;;13.65;100.00;99189.34;7390420;19;20015;-81
2022/04/04 11:25:04;;;;;;;3.70;3.03;;;;;;;13.65;100.00;99197.75;7390769;19;20014;-82
2022/04/04 11:27:33;;;;;;;3.00;2.15;;;;;;;13.68;100.00;99205.13;7391766;19;20617;-82
2022/04/04 11:30:02;;;;;;;3.83;2.25;;;;;;;13.67;100.00;99203.56;7388067;19;20018;-82
2022/04/04 11:32:31;;;;;;;3.28;1.73;;;;;;;13.64;100.00;99185.00;7394192;19;20484;-82
2022/04/04 11:35:06;;;;;;;3.30;1.80;;;;;;;13.60;100.00;99176.13;7389491;19;20014;-82
2022/04/04 11:37:49;;;;;;;2.15;1.48;;;;;;;13.61;100.00;99183.25;7391797;19;20432;-82